sensor_id;sensor_type;location;lat;lon;timestamp;temperature;humidity
14769;DHT22;7476;49.404;11.152;2024-03-02T00:00:44;6.10;99.90
14769;DHT22;7476;49.404;11.152;2024-03-02T00:03:12;6.20;99.90
14769;DHT22;7476;49.404;11.152;2024-03-02T00:05:39;6.20;99.90
14769;DHT22;7476;49.404;11.152;2024-03-02T00:08:07;6.20;99.90
14769;DHT22;7476;49.404;11.152;2024-03-02T00:10:37;6.10;99.90
14769;DHT22;7476;49.404;11.152;2024-03-02T00:13:05;6.20;99.90
14769;DHT22;7476;49.404;11.152;2024-03-02T00:15:41;6.20;99.90
14769;DHT22;7476;49.404;11.152;2024-03-02T00:18:10;6.20;99.90
14769;DHT22;7476;49.404;11.152;2024-03-02T00:20:38;6.30;99.90
14769;DHT22;7476;49.404;11.152;2024-03-02T00:23:05;6.30;99.90
14769;DHT22;7476;49.404;11.152;2024-03-02T00:25:44;6.20;99.90
14769;DHT22;7476;49.404;11.152;2024-03-02T00:28:16;6.20;99.90
14769;DHT22;7476;49.404;11.152;2024-03-02T00:30:55;6.30;99.90
14769;DHT22;7476;49.404;11.152;2024-03-02T00:33:23;6.30;99.90
14769;DHT22;7476;49.404;11.152;2024-03-02T00:35:50;6.20;99.90
14769;DHT22;7476;49.404;11.152;2024-03-02T00:38:17;6.20;99.90
14769;DHT22;7476;49.404;11.152;2024-03-02T00:40:45;6.20;99.90
14769;DHT22;7476;49.404;11.152;2024-03-02T00:43:41;6.20;99.90
14769;DHT22;7476;49.404;11.152;2024-03-02T00:46:08;6.30;99.90
14769;DHT22;7476;49.404;11.152;2024-03-02T00:48:35;6.30;99.90
14769;DHT22;7476;49.404;11.152;2024-03-02T00:51:02;6.30;99.90
14769;DHT22;7476;49.404;11.152;2024-03-02T00:53:30;6.30;99.90
14769;DHT22;7476;49.404;11.152;2024-03-02T00:55:59;6.30;99.90
14769;DHT22;7476;49.404;11.152;2024-03-02T00:58:27;6.30;99.90
14769;DHT22;7476;49.404;11.152;2024-03-02T01:00:53;6.30;99.90
14769;DHT22;7476;49.404;11.152;2024-03-02T01:03:20;6.30;99.90
14769;DHT22;7476;49.404;11.152;2024-03-02T01:05:47;6.30;99.90
14769;DHT22;7476;49.404;11.152;2024-03-02T01:08:14;6.30;99.90
14769;DHT22;7476;49.404;11.152;2024-03-02T01:10:41;6.30;99.90
14769;DHT22;7476;49.404;11.152;2024-03-02T01:13:09;6.30;99.90
14769;DHT22;7476;49.404;11.152;2024-03-02T01:15:35;6.30;99.90
14769;DHT22;7476;49.404;11.152;2024-03-02T01:18:02;6.30;99.90
14769;DHT22;7476;49.404;11.152;2024-03-02T01:20:29;6.20;99.90
14769;DHT22;7476;49.404;11.152;2024-03-02T01:22:56;6.20;99.90
14769;DHT22;7476;49.404;11.152;2024-03-02T01:25:22;6.10;99.90
14769;DHT22;7476;49.404;11.152;2024-03-02T01:27:50;6.20;99.90
14769;DHT22;7476;49.404;11.152;2024-03-02T01:30:18;6.10;99.90
14769;DHT22;7476;49.404;11.152;2024-03-02T01:32:45;6.10;99.90
14769;DHT22;7476;49.404;11.152;2024-03-02T01:35:11;6.20;99.90
14769;DHT22;7476;49.404;11.152;2024-03-02T01:37:38;6.20;99.90
14769;DHT22;7476;49.404;11.152;2024-03-02T01:40:06;6.10;99.90
14769;DHT22;7476;49.404;11.152;2024-03-02T01:42:35;6.10;99.90
14769;DHT22;7476;49.404;11.152;2024-03-02T01:45:02;6.10;99.90
14769;DHT22;7476;49.404;11.152;2024-03-02T01:47:30;6.20;99.90
14769;DHT22;7476;49.404;11.152;2024-03-02T01:49:58;6.10;99.90
14769;DHT22;7476;49.404;11.152;2024-03-02T01:52:25;6.20;99.90
14769;DHT22;7476;49.404;11.152;2024-03-02T01:54:51;6.30;99.90
14769;DHT22;7476;49.404;11.152;2024-03-02T01:57:18;6.20;99.90
14769;DHT22;7476;49.404;11.152;2024-03-02T01:59:45;6.30;99.90
14769;DHT22;7476;49.404;11.152;2024-03-02T02:02:13;6.20;99.90
14769;DHT22;7476;49.404;11.152;2024-03-02T02:04:41;6.10;99.90
14769;DHT22;7476;49.404;11.152;2024-03-02T02:07:07;6.10;99.90
14769;DHT22;7476;49.404;11.152;2024-03-02T02:09:34;6.10;99.90
14769;DHT22;7476;49.404;11.152;2024-03-02T02:12:01;6.20;99.90
14769;DHT22;7476;49.404;11.152;2024-03-02T02:14:29;6.10;99.90
14769;DHT22;7476;49.404;11.152;2024-03-02T02:16:55;6.10;99.90
14769;DHT22;7476;49.404;11.152;2024-03-02T02:19:22;6.10;99.90
14769;DHT22;7476;49.404;11.152;2024-03-02T02:21:50;6.00;99.90
14769;DHT22;7476;49.404;11.152;2024-03-02T02:24:17;6.10;99.90
14769;DHT22;7476;49.404;11.152;2024-03-02T02:26:43;6.10;99.90
14769;DHT22;7476;49.404;11.152;2024-03-02T02:29:10;6.00;99.90
14769;DHT22;7476;49.404;11.152;2024-03-02T02:31:37;6.00;99.90
14769;DHT22;7476;49.404;11.152;2024-03-02T02:34:04;6.00;99.90
14769;DHT22;7476;49.404;11.152;2024-03-02T02:36:31;5.90;99.90
14769;DHT22;7476;49.404;11.152;2024-03-02T02:39:02;5.90;99.90
14769;DHT22;7476;49.404;11.152;2024-03-02T02:41:28;5.90;99.90
14769;DHT22;7476;49.404;11.152;2024-03-02T02:43:55;6.00;99.90
14769;DHT22;7476;49.404;11.152;2024-03-02T02:46:22;5.90;99.90
14769;DHT22;7476;49.404;11.152;2024-03-02T02:48:49;5.90;99.90
14769;DHT22;7476;49.404;11.152;2024-03-02T02:51:16;5.90;99.90
14769;DHT22;7476;49.404;11.152;2024-03-02T02:53:43;5.90;99.90
14769;DHT22;7476;49.404;11.152;2024-03-02T02:56:11;5.90;99.90
14769;DHT22;7476;49.404;11.152;2024-03-02T02:58:39;5.90;99.90
14769;DHT22;7476;49.404;11.152;2024-03-02T03:01:06;5.90;99.90
14769;DHT22;7476;49.404;11.152;2024-03-02T03:03:33;6.00;99.90
14769;DHT22;7476;49.404;11.152;2024-03-02T03:06:00;6.00;99.90
14769;DHT22;7476;49.404;11.152;2024-03-02T03:08:27;6.10;99.90
14769;DHT22;7476;49.404;11.152;2024-03-02T03:10:54;6.10;99.90
14769;DHT22;7476;49.404;11.152;2024-03-02T03:13:22;6.10;99.90
14769;DHT22;7476;49.404;11.152;2024-03-02T03:15:49;6.10;99.90
14769;DHT22;7476;49.404;11.152;2024-03-02T03:18:16;6.10;99.90
14769;DHT22;7476;49.404;11.152;2024-03-02T03:20:42;6.10;99.90
14769;DHT22;7476;49.404;11.152;2024-03-02T03:23:09;6.10;99.90
14769;DHT22;7476;49.404;11.152;2024-03-02T03:25:40;6.10;99.90
14769;DHT22;7476;49.404;11.152;2024-03-02T03:28:07;6.10;99.90
14769;DHT22;7476;49.404;11.152;2024-03-02T03:30:36;6.10;99.90
14769;DHT22;7476;49.404;11.152;2024-03-02T03:33:03;6.20;99.90
14769;DHT22;7476;49.404;11.152;2024-03-02T03:35:31;6.30;99.90
14769;DHT22;7476;49.404;11.152;2024-03-02T03:37:58;6.30;99.90
14769;DHT22;7476;49.404;11.152;2024-03-02T03:40:24;6.30;99.90
14769;DHT22;7476;49.404;11.152;2024-03-02T03:42:51;6.30;99.90
14769;DHT22;7476;49.404;11.152;2024-03-02T03:45:18;6.30;99.90
14769;DHT22;7476;49.404;11.152;2024-03-02T03:47:47;6.30;99.90
14769;DHT22;7476;49.404;11.152;2024-03-02T03:50:14;6.30;99.90
14769;DHT22;7476;49.404;11.152;2024-03-02T03:52:40;6.30;99.90
14769;DHT22;7476;49.404;11.152;2024-03-02T03:55:08;6.30;99.90
14769;DHT22;7476;49.404;11.152;2024-03-02T03:57:35;6.30;99.90
14769;DHT22;7476;49.404;11.152;2024-03-02T04:00:02;6.30;99.90
14769;DHT22;7476;49.404;11.152;2024-03-02T04:02:30;6.30;99.90
14769;DHT22;7476;49.404;11.152;2024-03-02T04:04:58;6.30;99.90
14769;DHT22;7476;49.404;11.152;2024-03-02T04:07:24;6.30;99.90
14769;DHT22;7476;49.404;11.152;2024-03-02T04:09:51;6.20;99.90
14769;DHT22;7476;49.404;11.152;2024-03-02T04:12:17;6.20;99.90
14769;DHT22;7476;49.404;11.152;2024-03-02T04:14:44;6.20;99.90
14769;DHT22;7476;49.404;11.152;2024-03-02T04:17:11;6.20;99.90
14769;DHT22;7476;49.404;11.152;2024-03-02T04:19:38;6.10;99.90
14769;DHT22;7476;49.404;11.152;2024-03-02T04:22:06;6.00;99.90
14769;DHT22;7476;49.404;11.152;2024-03-02T04:24:33;5.90;99.90
14769;DHT22;7476;49.404;11.152;2024-03-02T04:27:00;5.90;99.90
14769;DHT22;7476;49.404;11.152;2024-03-02T04:29:27;5.80;99.90
14769;DHT22;7476;49.404;11.152;2024-03-02T04:31:54;5.70;99.90
14769;DHT22;7476;49.404;11.152;2024-03-02T04:34:21;5.70;99.90
14769;DHT22;7476;49.404;11.152;2024-03-02T04:36:48;5.70;99.90
14769;DHT22;7476;49.404;11.152;2024-03-02T04:39:16;5.70;99.90
14769;DHT22;7476;49.404;11.152;2024-03-02T04:41:43;5.60;99.90
14769;DHT22;7476;49.404;11.152;2024-03-02T04:44:10;5.50;99.90
14769;DHT22;7476;49.404;11.152;2024-03-02T04:46:36;5.40;99.90
14769;DHT22;7476;49.404;11.152;2024-03-02T04:49:03;5.40;99.90
14769;DHT22;7476;49.404;11.152;2024-03-02T04:51:30;5.40;99.90
14769;DHT22;7476;49.404;11.152;2024-03-02T04:53:56;5.30;99.90
14769;DHT22;7476;49.404;11.152;2024-03-02T04:56:24;5.10;99.90
14769;DHT22;7476;49.404;11.152;2024-03-02T04:59:09;5.10;99.90
14769;DHT22;7476;49.404;11.152;2024-03-02T05:01:35;5.00;99.90
14769;DHT22;7476;49.404;11.152;2024-03-02T05:04:02;5.00;99.90
14769;DHT22;7476;49.404;11.152;2024-03-02T05:06:28;5.10;99.90
14769;DHT22;7476;49.404;11.152;2024-03-02T05:08:55;5.00;99.90
14769;DHT22;7476;49.404;11.152;2024-03-02T05:11:22;5.00;99.90
14769;DHT22;7476;49.404;11.152;2024-03-02T05:14:08;4.90;99.90
14769;DHT22;7476;49.404;11.152;2024-03-02T05:16:35;5.00;99.90
14769;DHT22;7476;49.404;11.152;2024-03-02T05:19:03;5.00;99.90
14769;DHT22;7476;49.404;11.152;2024-03-02T05:21:32;5.00;99.90
14769;DHT22;7476;49.404;11.152;2024-03-02T05:23:58;5.00;99.90
14769;DHT22;7476;49.404;11.152;2024-03-02T05:26:25;4.90;99.90
14769;DHT22;7476;49.404;11.152;2024-03-02T05:28:52;5.00;99.90
14769;DHT22;7476;49.404;11.152;2024-03-02T05:31:20;5.10;99.90
14769;DHT22;7476;49.404;11.152;2024-03-02T05:33:47;5.10;99.90
14769;DHT22;7476;49.404;11.152;2024-03-02T05:36:13;5.10;99.90
14769;DHT22;7476;49.404;11.152;2024-03-02T05:38:40;5.10;99.90
14769;DHT22;7476;49.404;11.152;2024-03-02T05:41:06;5.20;99.90
14769;DHT22;7476;49.404;11.152;2024-03-02T05:43:33;5.10;99.90
14769;DHT22;7476;49.404;11.152;2024-03-02T05:46:00;5.10;99.90
14769;DHT22;7476;49.404;11.152;2024-03-02T05:48:28;5.10;99.90
14769;DHT22;7476;49.404;11.152;2024-03-02T05:50:55;5.20;99.90
14769;DHT22;7476;49.404;11.152;2024-03-02T05:53:22;5.20;99.90
14769;DHT22;7476;49.404;11.152;2024-03-02T05:55:48;5.20;99.90
14769;DHT22;7476;49.404;11.152;2024-03-02T05:58:18;5.30;99.90
14769;DHT22;7476;49.404;11.152;2024-03-02T06:00:56;5.40;99.90
14769;DHT22;7476;49.404;11.152;2024-03-02T06:03:23;5.40;99.90
14769;DHT22;7476;49.404;11.152;2024-03-02T06:05:51;5.40;99.90
14769;DHT22;7476;49.404;11.152;2024-03-02T06:08:18;5.50;99.90
14769;DHT22;7476;49.404;11.152;2024-03-02T06:10:44;5.50;99.90
14769;DHT22;7476;49.404;11.152;2024-03-02T06:13:11;5.50;99.90
14769;DHT22;7476;49.404;11.152;2024-03-02T06:15:38;5.50;99.90
14769;DHT22;7476;49.404;11.152;2024-03-02T06:18:05;5.50;99.90
14769;DHT22;7476;49.404;11.152;2024-03-02T06:20:33;5.50;99.90
14769;DHT22;7476;49.404;11.152;2024-03-02T06:23:01;5.60;99.90
14769;DHT22;7476;49.404;11.152;2024-03-02T06:25:27;5.50;99.90
14769;DHT22;7476;49.404;11.152;2024-03-02T06:27:54;5.50;99.90
14769;DHT22;7476;49.404;11.152;2024-03-02T06:30:21;5.40;99.90
14769;DHT22;7476;49.404;11.152;2024-03-02T06:32:47;5.40;99.90
14769;DHT22;7476;49.404;11.152;2024-03-02T06:35:14;5.50;99.90
14769;DHT22;7476;49.404;11.152;2024-03-02T06:37:41;5.40;99.90
14769;DHT22;7476;49.404;11.152;2024-03-02T06:40:09;5.40;99.90
14769;DHT22;7476;49.404;11.152;2024-03-02T06:42:36;5.40;99.90
14769;DHT22;7476;49.404;11.152;2024-03-02T06:45:04;5.50;99.90
14769;DHT22;7476;49.404;11.152;2024-03-02T06:47:30;5.50;99.90
14769;DHT22;7476;49.404;11.152;2024-03-02T06:49:57;5.50;99.90
14769;DHT22;7476;49.404;11.152;2024-03-02T06:52:24;5.50;99.90
14769;DHT22;7476;49.404;11.152;2024-03-02T06:54:51;5.60;99.90
14769;DHT22;7476;49.404;11.152;2024-03-02T06:57:19;5.60;99.90
14769;DHT22;7476;49.404;11.152;2024-03-02T06:59:46;5.70;99.90
14769;DHT22;7476;49.404;11.152;2024-03-02T07:02:15;5.70;99.90
14769;DHT22;7476;49.404;11.152;2024-03-02T07:04:42;5.80;99.90
14769;DHT22;7476;49.404;11.152;2024-03-02T07:07:08;5.90;99.90
14769;DHT22;7476;49.404;11.152;2024-03-02T07:09:35;6.00;99.90
14769;DHT22;7476;49.404;11.152;2024-03-02T07:12:02;6.10;99.90
14769;DHT22;7476;49.404;11.152;2024-03-02T07:14:30;6.20;99.90
14769;DHT22;7476;49.404;11.152;2024-03-02T07:17:11;6.30;99.90
14769;DHT22;7476;49.404;11.152;2024-03-02T07:19:38;6.40;99.90
14769;DHT22;7476;49.404;11.152;2024-03-02T07:22:06;6.60;99.90
14769;DHT22;7476;49.404;11.152;2024-03-02T07:24:39;6.70;99.90
14769;DHT22;7476;49.404;11.152;2024-03-02T07:27:06;6.90;99.90
14769;DHT22;7476;49.404;11.152;2024-03-02T07:29:34;7.20;99.90
14769;DHT22;7476;49.404;11.152;2024-03-02T07:32:01;7.60;99.90
14769;DHT22;7476;49.404;11.152;2024-03-02T07:34:28;8.30;99.90
14769;DHT22;7476;49.404;11.152;2024-03-02T07:36:55;8.80;99.90
14769;DHT22;7476;49.404;11.152;2024-03-02T07:39:22;8.90;99.90
14769;DHT22;7476;49.404;11.152;2024-03-02T07:41:49;9.00;99.90
14769;DHT22;7476;49.404;11.152;2024-03-02T07:44:15;8.80;99.90
14769;DHT22;7476;49.404;11.152;2024-03-02T07:46:46;8.80;99.90
14769;DHT22;7476;49.404;11.152;2024-03-02T07:49:13;8.80;99.90
14769;DHT22;7476;49.404;11.152;2024-03-02T07:51:40;8.70;99.90
14769;DHT22;7476;49.404;11.152;2024-03-02T07:54:07;8.70;99.90
14769;DHT22;7476;49.404;11.152;2024-03-02T07:56:34;8.70;99.90
14769;DHT22;7476;49.404;11.152;2024-03-02T07:59:00;8.60;99.90
14769;DHT22;7476;49.404;11.152;2024-03-02T08:01:27;8.60;99.90
14769;DHT22;7476;49.404;11.152;2024-03-02T08:03:56;8.60;99.90
14769;DHT22;7476;49.404;11.152;2024-03-02T08:06:24;8.70;99.90
14769;DHT22;7476;49.404;11.152;2024-03-02T08:08:53;8.70;99.90
14769;DHT22;7476;49.404;11.152;2024-03-02T08:11:19;8.80;99.90
14769;DHT22;7476;49.404;11.152;2024-03-02T08:13:46;8.80;99.90
14769;DHT22;7476;49.404;11.152;2024-03-02T08:16:13;9.10;99.90
14769;DHT22;7476;49.404;11.152;2024-03-02T08:18:40;9.20;91.80
14769;DHT22;7476;49.404;11.152;2024-03-02T08:21:08;9.20;88.20
14769;DHT22;7476;49.404;11.152;2024-03-02T08:23:35;9.30;18.90
14769;DHT22;7476;49.404;11.152;2024-03-02T08:26:01;9.40;22.00
14769;DHT22;7476;49.404;11.152;2024-03-02T08:28:28;9.50;1.00
14769;DHT22;7476;49.404;11.152;2024-03-02T08:30:55;9.40;1.00
14769;DHT22;7476;49.404;11.152;2024-03-02T08:33:22;9.40;1.00
14769;DHT22;7476;49.404;11.152;2024-03-02T08:35:48;9.50;1.00
14769;DHT22;7476;49.404;11.152;2024-03-02T08:38:16;9.60;1.00
14769;DHT22;7476;49.404;11.152;2024-03-02T08:40:43;9.60;1.00
14769;DHT22;7476;49.404;11.152;2024-03-02T08:43:10;9.90;1.00
14769;DHT22;7476;49.404;11.152;2024-03-02T08:45:37;10.10;1.00
14769;DHT22;7476;49.404;11.152;2024-03-02T08:48:06;10.40;1.00
14769;DHT22;7476;49.404;11.152;2024-03-02T08:50:33;10.50;1.00
14769;DHT22;7476;49.404;11.152;2024-03-02T08:53:00;10.70;1.00
14769;DHT22;7476;49.404;11.152;2024-03-02T08:55:28;11.00;1.00
14769;DHT22;7476;49.404;11.152;2024-03-02T08:57:55;11.10;1.00
14769;DHT22;7476;49.404;11.152;2024-03-02T09:00:22;11.20;1.00
14769;DHT22;7476;49.404;11.152;2024-03-02T09:02:49;11.40;1.00
14769;DHT22;7476;49.404;11.152;2024-03-02T09:05:16;11.60;1.00
14769;DHT22;7476;49.404;11.152;2024-03-02T09:07:43;11.70;1.00
14769;DHT22;7476;49.404;11.152;2024-03-02T09:10:10;11.80;99.90
14769;DHT22;7476;49.404;11.152;2024-03-02T09:12:38;12.10;99.90
14769;DHT22;7476;49.404;11.152;2024-03-02T09:15:05;12.20;2.00
14769;DHT22;7476;49.404;11.152;2024-03-02T09:17:32;12.10;99.90
14769;DHT22;7476;49.404;11.152;2024-03-02T09:19:59;12.20;99.90
14769;DHT22;7476;49.404;11.152;2024-03-02T09:22:26;12.20;1.00
14769;DHT22;7476;49.404;11.152;2024-03-02T09:24:52;12.30;1.00
14769;DHT22;7476;49.404;11.152;2024-03-02T09:27:19;12.10;1.00
14769;DHT22;7476;49.404;11.152;2024-03-02T09:29:47;12.20;1.00
14769;DHT22;7476;49.404;11.152;2024-03-02T09:32:14;12.10;41.50
14769;DHT22;7476;49.404;11.152;2024-03-02T09:34:41;12.30;1.00
14769;DHT22;7476;49.404;11.152;2024-03-02T09:37:08;12.30;1.00
14769;DHT22;7476;49.404;11.152;2024-03-02T09:39:35;12.60;1.00
14769;DHT22;7476;49.404;11.152;2024-03-02T09:42:03;13.10;1.00
14769;DHT22;7476;49.404;11.152;2024-03-02T09:44:30;13.10;1.00
14769;DHT22;7476;49.404;11.152;2024-03-02T09:46:59;12.80;99.90
14769;DHT22;7476;49.404;11.152;2024-03-02T09:49:25;13.10;99.90
14769;DHT22;7476;49.404;11.152;2024-03-02T09:51:52;13.20;99.90
14769;DHT22;7476;49.404;11.152;2024-03-02T09:54:19;13.30;99.90
14769;DHT22;7476;49.404;11.152;2024-03-02T09:56:46;13.60;1.00
14769;DHT22;7476;49.404;11.152;2024-03-02T09:59:13;13.80;99.90
14769;DHT22;7476;49.404;11.152;2024-03-02T10:01:55;13.90;99.90
14769;DHT22;7476;49.404;11.152;2024-03-02T10:04:24;14.00;1.00
14769;DHT22;7476;49.404;11.152;2024-03-02T10:06:51;14.00;1.00
14769;DHT22;7476;49.404;11.152;2024-03-02T10:09:27;13.70;99.90
14769;DHT22;7476;49.404;11.152;2024-03-02T10:12:01;13.70;1.00
14769;DHT22;7476;49.404;11.152;2024-03-02T10:14:29;13.30;1.00
14769;DHT22;7476;49.404;11.152;2024-03-02T10:17:02;13.30;1.00
14769;DHT22;7476;49.404;11.152;2024-03-02T10:19:31;13.50;1.00
14769;DHT22;7476;49.404;11.152;2024-03-02T10:22:00;13.60;1.00
14769;DHT22;7476;49.404;11.152;2024-03-02T10:24:35;13.60;1.00
14769;DHT22;7476;49.404;11.152;2024-03-02T10:27:07;13.30;99.90
14769;DHT22;7476;49.404;11.152;2024-03-02T10:29:36;13.40;99.90
14769;DHT22;7476;49.404;11.152;2024-03-02T10:32:04;13.80;1.00
14769;DHT22;7476;49.404;11.152;2024-03-02T10:34:33;14.00;96.30
14769;DHT22;7476;49.404;11.152;2024-03-02T10:37:00;14.10;90.00
14769;DHT22;7476;49.404;11.152;2024-03-02T10:39:27;14.10;1.00
14769;DHT22;7476;49.404;11.152;2024-03-02T10:41:55;14.30;1.00
14769;DHT22;7476;49.404;11.152;2024-03-02T10:44:23;14.40;1.00
14769;DHT22;7476;49.404;11.152;2024-03-02T10:46:50;14.70;1.00
14769;DHT22;7476;49.404;11.152;2024-03-02T10:49:16;14.80;1.00
14769;DHT22;7476;49.404;11.152;2024-03-02T10:51:45;14.70;1.00
14769;DHT22;7476;49.404;11.152;2024-03-02T10:54:11;14.30;1.00
14769;DHT22;7476;49.404;11.152;2024-03-02T10:56:39;14.00;1.00
14769;DHT22;7476;49.404;11.152;2024-03-02T10:59:13;13.80;1.00
14769;DHT22;7476;49.404;11.152;2024-03-02T11:01:43;14.60;1.00
14769;DHT22;7476;49.404;11.152;2024-03-02T11:04:16;14.80;1.00
14769;DHT22;7476;49.404;11.152;2024-03-02T11:06:48;14.70;1.00
14769;DHT22;7476;49.404;11.152;2024-03-02T11:09:17;14.90;1.00
14769;DHT22;7476;49.404;11.152;2024-03-02T11:11:45;14.90;1.00
14769;DHT22;7476;49.404;11.152;2024-03-02T11:14:17;14.70;1.00
14769;DHT22;7476;49.404;11.152;2024-03-02T11:16:48;14.70;1.00
14769;DHT22;7476;49.404;11.152;2024-03-02T11:19:15;14.60;1.00
14769;DHT22;7476;49.404;11.152;2024-03-02T11:21:44;14.60;1.00
14769;DHT22;7476;49.404;11.152;2024-03-02T11:24:33;14.60;1.00
14769;DHT22;7476;49.404;11.152;2024-03-02T11:27:00;14.50;1.00
14769;DHT22;7476;49.404;11.152;2024-03-02T11:29:43;14.20;1.00
14769;DHT22;7476;49.404;11.152;2024-03-02T11:32:14;15.00;1.00
14769;DHT22;7476;49.404;11.152;2024-03-02T11:34:42;15.10;99.90
14769;DHT22;7476;49.404;11.152;2024-03-02T11:37:12;15.50;99.90
14769;DHT22;7476;49.404;11.152;2024-03-02T11:39:39;15.30;99.90
14769;DHT22;7476;49.404;11.152;2024-03-02T11:42:07;15.50;99.90
14769;DHT22;7476;49.404;11.152;2024-03-02T11:44:35;14.90;99.90
14769;DHT22;7476;49.404;11.152;2024-03-02T11:47:05;15.00;99.90
14769;DHT22;7476;49.404;11.152;2024-03-02T11:49:40;15.10;99.90
14769;DHT22;7476;49.404;11.152;2024-03-02T11:52:08;14.80;99.90
14769;DHT22;7476;49.404;11.152;2024-03-02T11:54:37;14.80;99.90
14769;DHT22;7476;49.404;11.152;2024-03-02T11:57:05;14.60;99.90
14769;DHT22;7476;49.404;11.152;2024-03-02T11:59:32;14.80;99.90
14769;DHT22;7476;49.404;11.152;2024-03-02T12:02:00;14.60;99.90
14769;DHT22;7476;49.404;11.152;2024-03-02T12:04:26;14.30;99.90
14769;DHT22;7476;49.404;11.152;2024-03-02T12:06:56;14.50;99.90
14769;DHT22;7476;49.404;11.152;2024-03-02T12:09:26;14.60;99.90
14769;DHT22;7476;49.404;11.152;2024-03-02T12:12:08;14.80;99.90
14769;DHT22;7476;49.404;11.152;2024-03-02T12:14:37;14.90;99.90
14769;DHT22;7476;49.404;11.152;2024-03-02T12:17:04;14.70;99.90
14769;DHT22;7476;49.404;11.152;2024-03-02T12:19:32;14.60;99.90
14769;DHT22;7476;49.404;11.152;2024-03-02T12:21:59;14.60;99.90
14769;DHT22;7476;49.404;11.152;2024-03-02T12:24:27;14.80;99.90
14769;DHT22;7476;49.404;11.152;2024-03-02T12:26:54;15.40;99.90
14769;DHT22;7476;49.404;11.152;2024-03-02T12:29:23;16.10;99.90
14769;DHT22;7476;49.404;11.152;2024-03-02T12:31:51;16.20;99.90
14769;DHT22;7476;49.404;11.152;2024-03-02T12:34:19;16.00;99.90
14769;DHT22;7476;49.404;11.152;2024-03-02T12:36:46;16.20;99.90
14769;DHT22;7476;49.404;11.152;2024-03-02T12:39:15;16.70;99.90
14769;DHT22;7476;49.404;11.152;2024-03-02T12:41:42;15.80;99.90
14769;DHT22;7476;49.404;11.152;2024-03-02T12:44:08;16.20;99.90
14769;DHT22;7476;49.404;11.152;2024-03-02T12:46:37;16.60;99.90
14769;DHT22;7476;49.404;11.152;2024-03-02T12:49:08;17.00;99.90
14769;DHT22;7476;49.404;11.152;2024-03-02T12:51:36;16.10;99.90
14769;DHT22;7476;49.404;11.152;2024-03-02T12:54:03;15.70;99.90
14769;DHT22;7476;49.404;11.152;2024-03-02T12:56:31;15.80;99.90
14769;DHT22;7476;49.404;11.152;2024-03-02T12:58:58;16.80;99.90
14769;DHT22;7476;49.404;11.152;2024-03-02T13:01:25;17.00;99.90
14769;DHT22;7476;49.404;11.152;2024-03-02T13:03:54;16.00;99.90
14769;DHT22;7476;49.404;11.152;2024-03-02T13:06:22;16.40;99.90
14769;DHT22;7476;49.404;11.152;2024-03-02T13:08:49;16.50;99.90
14769;DHT22;7476;49.404;11.152;2024-03-02T13:11:16;16.40;99.90
14769;DHT22;7476;49.404;11.152;2024-03-02T13:13:43;16.10;99.90
14769;DHT22;7476;49.404;11.152;2024-03-02T13:16:10;15.20;99.90
14769;DHT22;7476;49.404;11.152;2024-03-02T13:18:38;15.20;99.90
14769;DHT22;7476;49.404;11.152;2024-03-02T13:21:06;15.40;99.90
14769;DHT22;7476;49.404;11.152;2024-03-02T13:23:33;16.10;99.90
14769;DHT22;7476;49.404;11.152;2024-03-02T13:26:00;16.60;99.90
14769;DHT22;7476;49.404;11.152;2024-03-02T13:28:27;17.70;99.90
14769;DHT22;7476;49.404;11.152;2024-03-02T13:30:54;19.20;99.90
14769;DHT22;7476;49.404;11.152;2024-03-02T13:33:20;18.10;94.30
14769;DHT22;7476;49.404;11.152;2024-03-02T13:35:48;17.90;97.20
14769;DHT22;7476;49.404;11.152;2024-03-02T13:38:18;18.20;93.60
14769;DHT22;7476;49.404;11.152;2024-03-02T13:40:45;17.80;92.40
14769;DHT22;7476;49.404;11.152;2024-03-02T13:43:12;17.60;90.50
14769;DHT22;7476;49.404;11.152;2024-03-02T13:45:39;18.70;92.50
14769;DHT22;7476;49.404;11.152;2024-03-02T13:48:06;19.20;80.20
14769;DHT22;7476;49.404;11.152;2024-03-02T13:50:33;18.80;82.60
14769;DHT22;7476;49.404;11.152;2024-03-02T13:53:00;18.60;56.70
14769;DHT22;7476;49.404;11.152;2024-03-02T13:55:29;18.90;55.50
14769;DHT22;7476;49.404;11.152;2024-03-02T13:57:57;18.80;51.30
14769;DHT22;7476;49.404;11.152;2024-03-02T14:00:23;19.80;56.20
14769;DHT22;7476;49.404;11.152;2024-03-02T14:02:50;20.00;40.80
14769;DHT22;7476;49.404;11.152;2024-03-02T14:05:17;20.40;29.00
14769;DHT22;7476;49.404;11.152;2024-03-02T14:07:44;19.60;33.30
14769;DHT22;7476;49.404;11.152;2024-03-02T14:10:11;20.10;32.10
14769;DHT22;7476;49.404;11.152;2024-03-02T14:12:41;17.80;20.20
14769;DHT22;7476;49.404;11.152;2024-03-02T14:15:07;15.60;86.90
14769;DHT22;7476;49.404;11.152;2024-03-02T14:17:34;15.60;99.90
14769;DHT22;7476;49.404;11.152;2024-03-02T14:20:01;15.90;99.90
14769;DHT22;7476;49.404;11.152;2024-03-02T14:22:30;16.50;84.00
14769;DHT22;7476;49.404;11.152;2024-03-02T14:24:57;16.30;90.60
14769;DHT22;7476;49.404;11.152;2024-03-02T14:27:23;16.00;91.00
14769;DHT22;7476;49.404;11.152;2024-03-02T14:29:52;15.90;92.90
14769;DHT22;7476;49.404;11.152;2024-03-02T14:32:18;15.20;93.60
14769;DHT22;7476;49.404;11.152;2024-03-02T14:34:45;15.50;99.90
14769;DHT22;7476;49.404;11.152;2024-03-02T14:37:12;15.50;99.60
14769;DHT22;7476;49.404;11.152;2024-03-02T14:39:39;14.90;99.90
14769;DHT22;7476;49.404;11.152;2024-03-02T14:42:05;14.00;99.90
14769;DHT22;7476;49.404;11.152;2024-03-02T14:44:33;13.70;99.90
14769;DHT22;7476;49.404;11.152;2024-03-02T14:47:01;13.80;99.90
14769;DHT22;7476;49.404;11.152;2024-03-02T14:49:29;14.20;99.90
14769;DHT22;7476;49.404;11.152;2024-03-02T14:51:56;14.00;99.90
14769;DHT22;7476;49.404;11.152;2024-03-02T14:54:23;14.10;99.90
14769;DHT22;7476;49.404;11.152;2024-03-02T14:56:49;14.40;99.90
14769;DHT22;7476;49.404;11.152;2024-03-02T14:59:17;15.10;99.90
14769;DHT22;7476;49.404;11.152;2024-03-02T15:01:44;15.20;99.90
14769;DHT22;7476;49.404;11.152;2024-03-02T15:04:12;15.20;99.90
14769;DHT22;7476;49.404;11.152;2024-03-02T15:06:41;14.60;99.90
14769;DHT22;7476;49.404;11.152;2024-03-02T15:09:08;14.00;99.90
14769;DHT22;7476;49.404;11.152;2024-03-02T15:11:35;14.30;99.90
14769;DHT22;7476;49.404;11.152;2024-03-02T15:14:01;14.60;99.90
14769;DHT22;7476;49.404;11.152;2024-03-02T15:16:28;14.50;99.90
14769;DHT22;7476;49.404;11.152;2024-03-02T15:18:55;14.20;99.90
14769;DHT22;7476;49.404;11.152;2024-03-02T15:21:23;14.10;99.90
14769;DHT22;7476;49.404;11.152;2024-03-02T15:23:49;14.90;99.90
14769;DHT22;7476;49.404;11.152;2024-03-02T15:26:17;16.70;99.90
14769;DHT22;7476;49.404;11.152;2024-03-02T15:28:43;17.10;99.90
14769;DHT22;7476;49.404;11.152;2024-03-02T15:31:10;16.80;99.90
14769;DHT22;7476;49.404;11.152;2024-03-02T15:33:37;14.80;99.90
14769;DHT22;7476;49.404;11.152;2024-03-02T15:36:04;14.80;99.90
14769;DHT22;7476;49.404;11.152;2024-03-02T15:38:32;15.70;99.90
14769;DHT22;7476;49.404;11.152;2024-03-02T15:41:02;15.60;99.90
14769;DHT22;7476;49.404;11.152;2024-03-02T15:43:29;15.40;99.90
14769;DHT22;7476;49.404;11.152;2024-03-02T15:45:56;15.90;99.90